createdAt,value
2018-05-06T00:00:14.191Z,96.40
2018-05-06T00:02:41.804Z,96.90
2018-05-06T00:05:09.440Z,96.90
2018-05-06T00:07:37.042Z,97.00
2018-05-06T00:12:38.407Z,97.30
2018-05-06T00:15:06.124Z,97.80
2018-05-06T00:17:34.713Z,98.10
2018-05-06T00:20:02.312Z,98.30
2018-05-06T00:22:29.951Z,98.90
2018-05-06T00:24:57.535Z,99.00
2018-05-06T00:27:25.143Z,99.10
2018-05-06T00:29:52.761Z,99.10
2018-05-06T00:32:20.352Z,99.30
2018-05-06T00:34:47.990Z,99.70
2018-05-06T00:37:15.615Z,99.90
2018-05-06T00:39:43.241Z,99.90
2018-05-06T00:42:11.807Z,99.90
2018-05-06T00:44:40.168Z,99.90
2018-05-06T00:47:07.802Z,99.90
2018-05-06T00:49:35.636Z,99.60
2018-05-06T00:52:03.251Z,99.40
2018-05-06T00:54:42.712Z,99.20
2018-05-06T00:57:10.315Z,99.30
2018-05-06T00:59:38.734Z,99.80
2018-05-06T01:02:06.472Z,99.80
2018-05-06T01:04:34.096Z,99.90
2018-05-06T01:07:01.739Z,99.90
2018-05-06T01:09:29.401Z,99.90
2018-05-06T01:11:57.053Z,99.90
2018-05-06T01:14:24.729Z,99.90
2018-05-06T01:16:52.405Z,99.90
2018-05-06T01:19:20.505Z,99.90
2018-05-06T01:21:48.944Z,99.90
2018-05-06T01:24:16.545Z,99.90
2018-05-06T01:26:44.669Z,99.90
2018-05-06T01:29:12.320Z,99.90
2018-05-06T01:31:40.939Z,99.90
2018-05-06T01:34:08.965Z,99.90
2018-05-06T01:36:37.347Z,99.90
2018-05-06T01:39:05.060Z,99.90
2018-05-06T01:41:32.704Z,99.90
2018-05-06T01:44:00.361Z,99.90
2018-05-06T01:46:27.972Z,99.90
2018-05-06T01:48:55.655Z,99.90
2018-05-06T01:51:23.295Z,99.90
2018-05-06T01:53:50.910Z,99.90
2018-05-06T01:56:18.545Z,99.90
2018-05-06T01:58:46.140Z,99.90
2018-05-06T02:01:13.757Z,99.90
2018-05-06T02:03:41.525Z,99.90
2018-05-06T02:06:09.160Z,99.90
2018-05-06T02:08:36.842Z,99.90
2018-05-06T02:11:05.258Z,99.90
2018-05-06T02:13:33.656Z,99.90
2018-05-06T02:16:02.087Z,99.90
2018-05-06T02:18:29.744Z,99.90
2018-05-06T02:20:57.347Z,99.90
2018-05-06T02:23:24.980Z,99.90
2018-05-06T02:25:52.568Z,99.90
2018-05-06T02:28:20.205Z,99.90
2018-05-06T02:30:47.801Z,99.90
2018-05-06T02:33:15.449Z,99.90
2018-05-06T02:35:43.089Z,99.90
2018-05-06T02:38:10.731Z,99.90
2018-05-06T02:40:38.432Z,99.90
2018-05-06T02:43:06.061Z,99.90
2018-05-06T02:45:33.675Z,99.90
2018-05-06T02:48:01.313Z,99.90
2018-05-06T02:50:29.781Z,99.90
2018-05-06T02:52:57.368Z,99.90
2018-05-06T02:55:25.768Z,99.90
2018-05-06T02:57:53.382Z,99.90
2018-05-06T03:00:21.017Z,99.90
2018-05-06T03:02:49.393Z,99.90
2018-05-06T03:05:17.018Z,99.90
2018-05-06T03:07:44.667Z,99.90
2018-05-06T03:10:12.276Z,99.90
2018-05-06T03:12:40.650Z,99.90
2018-05-06T03:15:09.064Z,99.90
2018-05-06T03:17:36.694Z,99.90
2018-05-06T03:20:04.358Z,99.90
2018-05-06T03:22:31.981Z,99.90
2018-05-06T03:24:59.620Z,99.90
2018-05-06T03:27:27.240Z,99.90
2018-05-06T03:29:54.838Z,99.90
2018-05-06T03:32:23.219Z,99.90
2018-05-06T03:34:51.654Z,99.90
2018-05-06T03:37:19.739Z,99.90
2018-05-06T03:39:47.336Z,99.90
2018-05-06T03:42:14.964Z,99.90
2018-05-06T03:44:42.588Z,99.90
2018-05-06T03:47:10.173Z,99.90
2018-05-06T03:49:37.817Z,99.90
2018-05-06T03:52:05.423Z,99.90
2018-05-06T03:54:33.027Z,99.90
2018-05-06T03:57:13.088Z,99.90
2018-05-06T03:59:53.237Z,99.90
2018-05-06T04:05:19.536Z,99.90
2018-05-06T04:07:47.215Z,99.90
2018-05-06T04:10:15.641Z,99.90
2018-05-06T04:12:43.268Z,99.90
2018-05-06T04:15:11.790Z,99.90
2018-05-06T04:17:40.226Z,99.90
2018-05-06T04:20:07.836Z,99.90
2018-05-06T04:22:35.499Z,99.90
2018-05-06T04:25:04.023Z,99.90
2018-05-06T04:27:31.644Z,99.90
2018-05-06T04:30:01.026Z,99.90
2018-05-06T04:32:29.066Z,99.90
2018-05-06T04:34:56.727Z,99.90
2018-05-06T04:37:24.383Z,99.90
2018-05-06T04:39:52.983Z,99.90
2018-05-06T04:42:20.565Z,99.90
2018-05-06T04:44:48.171Z,99.90
2018-05-06T04:47:16.631Z,99.90
2018-05-06T04:49:44.317Z,99.90
2018-05-06T04:52:12.747Z,99.90
2018-05-06T04:54:40.613Z,99.90
2018-05-06T04:57:08.280Z,99.90
2018-05-06T04:59:36.084Z,99.90
2018-05-06T05:02:03.817Z,99.90
2018-05-06T05:04:31.454Z,99.90
2018-05-06T05:07:00.061Z,99.90
2018-05-06T05:09:27.759Z,99.90
2018-05-06T05:11:55.402Z,99.90
2018-05-06T05:14:23.142Z,99.90
2018-05-06T05:16:50.772Z,99.90
2018-05-06T05:19:19.249Z,99.90
2018-05-06T05:21:47.472Z,99.90
2018-05-06T05:24:15.140Z,99.90
2018-05-06T05:26:42.927Z,99.90
2018-05-06T05:29:10.557Z,99.90
2018-05-06T05:31:38.481Z,99.90
2018-05-06T05:34:06.183Z,99.90
2018-05-06T05:36:34.844Z,99.90
2018-05-06T05:39:02.520Z,99.90
2018-05-06T05:41:30.922Z,99.90
2018-05-06T05:43:58.544Z,99.90
2018-05-06T05:46:26.160Z,99.90
2018-05-06T05:48:53.908Z,99.90
2018-05-06T05:51:22.454Z,99.90
2018-05-06T05:53:50.043Z,99.90
2018-05-06T05:56:18.504Z,99.90
2018-05-06T05:58:47.120Z,99.90
2018-05-06T06:01:15.487Z,99.90
2018-05-06T06:03:43.197Z,99.90
2018-05-06T06:06:10.883Z,99.90
2018-05-06T06:08:39.325Z,99.90
2018-05-06T06:11:07.771Z,99.90
2018-05-06T06:13:35.412Z,99.90
2018-05-06T06:16:03.179Z,99.90
2018-05-06T06:18:30.842Z,99.90
2018-05-06T06:20:58.517Z,99.90
2018-05-06T06:23:26.166Z,99.90
2018-05-06T06:25:53.842Z,99.90
2018-05-06T06:28:21.621Z,99.90
2018-05-06T06:30:50.440Z,99.90
2018-05-06T06:33:18.121Z,99.90
2018-05-06T06:35:46.517Z,99.90
2018-05-06T06:38:14.252Z,99.90
2018-05-06T06:40:41.896Z,99.90
2018-05-06T06:43:09.538Z,99.90
2018-05-06T06:45:37.213Z,99.90
2018-05-06T06:48:04.892Z,99.90
2018-05-06T06:50:32.564Z,99.90
2018-05-06T06:53:01.001Z,99.90
2018-05-06T06:55:28.679Z,99.90
2018-05-06T06:57:56.318Z,99.90
2018-05-06T07:00:24.011Z,99.90
2018-05-06T07:02:53.160Z,99.90
2018-05-06T07:05:22.556Z,99.90
2018-05-06T07:07:51.088Z,99.90
2018-05-06T07:10:18.782Z,99.90
2018-05-06T07:12:46.497Z,99.90
2018-05-06T07:15:14.125Z,99.90
2018-05-06T07:17:41.752Z,99.90
2018-05-06T07:20:09.409Z,99.80
2018-05-06T07:22:37.033Z,99.90
2018-05-06T07:25:04.673Z,99.40
2018-05-06T07:27:32.316Z,99.00
2018-05-06T07:29:59.973Z,99.20
2018-05-06T07:32:27.573Z,98.40
2018-05-06T07:34:56.081Z,97.90
2018-05-06T07:37:24.437Z,96.50
2018-05-06T07:39:52.176Z,96.50
2018-05-06T07:42:19.865Z,96.30
2018-05-06T07:44:48.038Z,95.60
2018-05-06T07:47:15.681Z,95.50
2018-05-06T07:49:43.384Z,94.50
2018-05-06T07:52:11.161Z,94.20
2018-05-06T07:54:38.923Z,94.30
2018-05-06T07:57:07.372Z,93.30
2018-05-06T07:59:34.971Z,93.30
2018-05-06T08:02:02.625Z,92.40
2018-05-06T08:04:30.325Z,92.10
2018-05-06T08:06:57.942Z,91.70
2018-05-06T08:09:25.619Z,88.30
2018-05-06T08:11:53.776Z,84.00
2018-05-06T08:14:21.550Z,85.20
2018-05-06T08:16:49.198Z,84.60
2018-05-06T08:19:16.853Z,82.50
2018-05-06T08:21:46.060Z,80.50
2018-05-06T08:24:13.778Z,77.90
2018-05-06T08:26:41.511Z,76.60
2018-05-06T08:29:09.096Z,75.30
2018-05-06T08:31:36.985Z,70.80
2018-05-06T08:34:04.730Z,70.00
2018-05-06T08:36:33.250Z,69.30
2018-05-06T08:39:00.976Z,69.30
2018-05-06T08:41:30.263Z,62.20
2018-05-06T08:43:58.996Z,63.20
2018-05-06T08:46:28.285Z,62.50
2018-05-06T08:48:55.986Z,62.50
2018-05-06T08:51:23.683Z,62.50
2018-05-06T08:53:51.288Z,62.10
2018-05-06T08:56:18.912Z,61.60
2018-05-06T08:58:46.520Z,56.30
2018-05-06T09:01:14.952Z,55.40
2018-05-06T09:03:42.551Z,55.40
2018-05-06T09:06:10.419Z,54.50
2018-05-06T09:08:38.014Z,55.10
2018-05-06T09:11:05.692Z,54.80
2018-05-06T09:13:33.437Z,51.40
2018-05-06T09:16:01.792Z,49.00
2018-05-06T09:18:29.393Z,48.90
2018-05-06T09:20:57.014Z,49.00
2018-05-06T09:23:24.747Z,49.00
2018-05-06T09:25:52.372Z,49.40
2018-05-06T09:28:21.420Z,48.20
2018-05-06T09:30:49.103Z,48.20
2018-05-06T09:33:17.232Z,47.00
2018-05-06T09:35:44.834Z,46.80
2018-05-06T09:38:12.548Z,45.60
2018-05-06T09:40:40.244Z,43.40
2018-05-06T09:43:07.944Z,43.70
2018-05-06T09:45:35.537Z,42.70
2018-05-06T09:48:03.181Z,40.40
2018-05-06T09:50:31.588Z,40.10
2018-05-06T09:52:59.228Z,40.00
2018-05-06T09:55:27.648Z,37.50
2018-05-06T09:57:55.240Z,37.50
2018-05-06T10:00:22.844Z,37.80
2018-05-06T10:02:53.276Z,37.60
2018-05-06T10:05:20.860Z,37.60
2018-05-06T10:07:48.504Z,37.90
2018-05-06T10:10:16.868Z,39.10
2018-05-06T10:12:44.473Z,39.00
2018-05-06T10:15:12.100Z,39.20
2018-05-06T10:17:39.727Z,39.30
2018-05-06T10:20:08.209Z,39.80
2018-05-06T10:22:36.596Z,39.90
2018-05-06T10:25:04.257Z,39.90
2018-05-06T10:27:31.854Z,39.70
2018-05-06T10:29:59.600Z,39.40
2018-05-06T10:32:27.180Z,40.20
2018-05-06T10:34:54.793Z,40.40
2018-05-06T10:37:22.444Z,40.30
2018-05-06T10:39:50.039Z,40.20
2018-05-06T10:42:17.631Z,40.10
2018-05-06T10:44:47.168Z,40.60
2018-05-06T10:47:14.791Z,40.60
2018-05-06T10:49:42.440Z,40.40
2018-05-06T10:52:10.103Z,40.60
2018-05-06T10:54:37.728Z,40.60
2018-05-06T10:57:05.349Z,40.60
2018-05-06T10:59:32.979Z,40.40
2018-05-06T11:02:00.664Z,41.60
2018-05-06T11:04:28.274Z,39.80
2018-05-06T11:06:56.674Z,40.30
2018-05-06T11:09:24.296Z,40.30
2018-05-06T11:11:51.934Z,41.00
2018-05-06T11:14:19.568Z,41.20
2018-05-06T11:16:47.370Z,41.40
2018-05-06T11:19:16.240Z,41.30
2018-05-06T11:21:43.875Z,41.30
2018-05-06T11:24:11.508Z,40.80
2018-05-06T11:26:39.191Z,41.30
2018-05-06T11:29:06.792Z,41.30
2018-05-06T11:31:34.440Z,40.70
2018-05-06T11:34:02.799Z,40.90
2018-05-06T11:36:30.394Z,40.80
2018-05-06T11:38:58.028Z,40.10
2018-05-06T11:41:25.636Z,40.20
2018-05-06T11:43:53.259Z,40.80
2018-05-06T11:46:21.652Z,40.70
2018-05-06T11:48:50.057Z,39.80
2018-05-06T11:51:17.720Z,39.90
2018-05-06T11:53:45.349Z,40.10
2018-05-06T11:56:13.027Z,39.60
2018-05-06T11:58:40.631Z,40.10
2018-05-06T12:01:08.303Z,40.20
2018-05-06T12:03:36.171Z,39.50
2018-05-06T12:06:03.815Z,40.00
2018-05-06T12:08:31.494Z,39.70
2018-05-06T12:10:59.081Z,40.00
2018-05-06T12:13:27.513Z,40.30
2018-05-06T12:15:55.130Z,40.20
2018-05-06T12:18:22.751Z,39.40
2018-05-06T12:20:50.373Z,38.90
2018-05-06T12:23:18.428Z,38.40
2018-05-06T12:25:46.096Z,37.70
2018-05-06T12:28:13.707Z,37.20
2018-05-06T12:30:41.302Z,37.70
2018-05-06T12:33:08.957Z,37.00
2018-05-06T12:35:36.629Z,37.80
2018-05-06T12:38:04.337Z,37.40
2018-05-06T12:40:32.737Z,37.60
2018-05-06T12:43:01.149Z,37.40
2018-05-06T12:45:28.780Z,37.40
2018-05-06T12:47:57.217Z,37.70
2018-05-06T12:50:24.818Z,38.30
2018-05-06T12:52:52.439Z,38.20
2018-05-06T12:55:20.110Z,37.80
2018-05-06T12:57:48.482Z,39.10
2018-05-06T13:00:16.078Z,39.00
2018-05-06T13:02:43.701Z,38.70
2018-05-06T13:05:11.301Z,39.10
2018-05-06T13:07:38.937Z,39.00
2018-05-06T13:10:06.575Z,38.70
2018-05-06T13:12:34.260Z,38.70
2018-05-06T13:15:01.866Z,38.90
2018-05-06T13:17:30.283Z,37.70
2018-05-06T13:19:57.939Z,37.70
2018-05-06T13:22:25.533Z,38.00
2018-05-06T13:24:53.304Z,37.40
2018-05-06T13:27:21.668Z,38.20
2018-05-06T13:29:49.253Z,37.70
2018-05-06T13:32:16.887Z,36.60
2018-05-06T13:34:44.574Z,34.90
2018-05-06T13:37:12.197Z,35.10
2018-05-06T13:39:39.793Z,34.70
2018-05-06T13:42:07.423Z,32.90
2018-05-06T13:44:35.822Z,30.50
2018-05-06T13:47:03.517Z,30.50
2018-05-06T13:49:31.152Z,31.40
2018-05-06T13:51:58.793Z,32.00
2018-05-06T13:54:26.439Z,30.60
2018-05-06T13:56:54.069Z,30.00
2018-05-06T13:59:23.012Z,30.50
2018-05-06T14:01:51.396Z,29.90
2018-05-06T14:04:19.009Z,29.90
2018-05-06T14:06:46.726Z,29.40
2018-05-06T14:09:15.705Z,28.30
2018-05-06T14:11:44.154Z,27.80
2018-05-06T14:14:11.772Z,27.80
2018-05-06T14:16:39.367Z,27.60
2018-05-06T14:19:07.149Z,27.10
2018-05-06T14:21:34.840Z,26.80
2018-05-06T14:24:02.480Z,26.70
2018-05-06T14:26:30.099Z,25.70
2018-05-06T14:28:57.709Z,26.30
2018-05-06T14:31:25.324Z,26.80
2018-05-06T14:33:53.680Z,26.50
2018-05-06T14:36:21.312Z,26.40
2018-05-06T14:38:48.904Z,26.00
2018-05-06T14:41:17.521Z,25.70
2018-05-06T14:43:45.150Z,26.00
2018-05-06T14:46:24.544Z,25.20
2018-05-06T14:48:52.161Z,25.60
2018-05-06T14:51:19.918Z,25.70
2018-05-06T14:53:48.284Z,25.30
2018-05-06T14:56:16.776Z,25.30
2018-05-06T14:58:44.534Z,25.00
2018-05-06T15:01:12.124Z,25.30
2018-05-06T15:03:39.760Z,25.10
2018-05-06T15:06:07.407Z,25.10
2018-05-06T15:08:35.059Z,24.80
2018-05-06T15:11:02.660Z,24.20
2018-05-06T15:13:31.952Z,24.00
2018-05-06T15:15:59.581Z,24.00
2018-05-06T15:18:28.768Z,23.40
2018-05-06T15:20:57.158Z,23.70
2018-05-06T15:23:25.572Z,23.50
2018-05-06T15:25:53.184Z,23.50
2018-05-06T15:28:21.590Z,23.30
2018-05-06T15:30:49.978Z,24.00
2018-05-06T15:33:17.600Z,24.00
2018-05-06T15:35:46.160Z,23.40
2018-05-06T15:38:13.826Z,23.40
2018-05-06T15:40:41.459Z,22.90
2018-05-06T15:43:09.069Z,23.10
2018-05-06T15:45:36.925Z,23.00
2018-05-06T15:48:04.525Z,23.30
2018-05-06T15:50:32.122Z,24.40
2018-05-06T15:52:59.814Z,23.70
2018-05-06T15:55:27.504Z,24.20
2018-05-06T15:57:55.129Z,23.80
2018-05-06T16:00:22.868Z,24.40
2018-05-06T16:03:03.120Z,25.40
2018-05-06T16:05:31.516Z,25.80
2018-05-06T16:07:59.129Z,25.80
2018-05-06T16:10:26.831Z,25.90
2018-05-06T16:12:55.277Z,26.50
2018-05-06T16:15:23.654Z,26.20
2018-05-06T16:17:52.135Z,26.20
2018-05-06T16:20:19.805Z,26.30
2018-05-06T16:22:47.457Z,26.70
2018-05-06T16:25:15.109Z,26.40
2018-05-06T16:27:42.740Z,26.30
2018-05-06T16:30:11.092Z,26.40
2018-05-06T16:32:38.725Z,26.40
2018-05-06T16:35:06.356Z,26.40
2018-05-06T16:37:34.750Z,27.10
2018-05-06T16:40:02.372Z,27.10
2018-05-06T16:42:30.040Z,26.70
2018-05-06T16:44:57.770Z,26.90
2018-05-06T16:47:25.537Z,27.10
2018-05-06T16:49:53.533Z,27.80
2018-05-06T16:52:21.133Z,27.10
2018-05-06T16:54:50.981Z,27.20
2018-05-06T16:57:18.633Z,27.20
2018-05-06T16:59:46.279Z,27.30
2018-05-06T17:02:13.919Z,27.40
2018-05-06T17:04:41.596Z,27.30
2018-05-06T17:07:09.189Z,26.90
2018-05-06T17:09:36.784Z,26.80
2018-05-06T17:12:04.438Z,26.30
2018-05-06T17:14:32.047Z,26.50
2018-05-06T17:17:00.482Z,26.90
2018-05-06T17:19:28.120Z,26.90
2018-05-06T17:21:55.832Z,27.10
2018-05-06T17:24:23.403Z,26.50
2018-05-06T17:26:51.114Z,27.70
2018-05-06T17:29:18.733Z,27.40
2018-05-06T17:31:46.432Z,27.70
2018-05-06T17:34:14.018Z,27.60
2018-05-06T17:36:41.631Z,27.60
2018-05-06T17:39:09.273Z,27.70
2018-05-06T17:41:36.904Z,27.20
2018-05-06T17:44:04.635Z,27.90
2018-05-06T17:46:32.360Z,27.70
2018-05-06T17:48:59.983Z,27.80
2018-05-06T17:51:28.349Z,27.00
2018-05-06T17:53:56.028Z,27.00
2018-05-06T17:56:24.432Z,26.70
2018-05-06T17:58:52.047Z,26.60
2018-05-06T18:01:19.783Z,27.60
2018-05-06T18:03:47.454Z,27.80
2018-05-06T18:06:15.093Z,28.10
2018-05-06T18:08:42.876Z,27.60
2018-05-06T18:11:10.470Z,27.90
2018-05-06T18:13:38.109Z,27.60
2018-05-06T18:16:05.705Z,27.80
2018-05-06T18:18:38.500Z,27.80
2018-05-06T18:21:06.125Z,28.10
2018-05-06T18:23:33.744Z,27.70
2018-05-06T18:26:02.140Z,28.80
2018-05-06T18:28:30.620Z,28.80
2018-05-06T18:30:58.213Z,28.70
2018-05-06T18:33:25.859Z,28.80
2018-05-06T18:35:53.513Z,28.40
2018-05-06T18:38:21.189Z,28.90
2018-05-06T18:40:49.762Z,29.00
2018-05-06T18:43:17.385Z,29.10
2018-05-06T18:45:45.044Z,29.60
2018-05-06T18:48:12.732Z,29.60
2018-05-06T18:50:41.053Z,29.60
2018-05-06T18:53:08.775Z,29.60
2018-05-06T18:55:37.296Z,29.80
2018-05-06T18:58:04.900Z,29.90
2018-05-06T19:00:32.574Z,30.10
2018-05-06T19:03:00.212Z,30.20
2018-05-06T19:05:27.848Z,30.80
2018-05-06T19:07:55.445Z,31.00
2018-05-06T19:10:23.069Z,31.70
2018-05-06T19:12:50.684Z,32.10
2018-05-06T19:15:19.065Z,33.20
2018-05-06T19:17:47.028Z,33.20
2018-05-06T19:20:14.624Z,33.40
2018-05-06T19:22:42.986Z,35.50
2018-05-06T19:25:10.684Z,35.40
2018-05-06T19:27:38.258Z,36.80
2018-05-06T19:30:06.057Z,38.00
2018-05-06T19:32:33.734Z,38.80
2018-05-06T19:35:01.322Z,39.30
2018-05-06T19:37:28.946Z,39.90
2018-05-06T19:39:56.604Z,40.10
2018-05-06T19:42:24.292Z,40.90
2018-05-06T19:44:52.653Z,41.80
2018-05-06T19:47:20.276Z,41.70
2018-05-06T19:49:48.733Z,42.30
2018-05-06T19:52:16.365Z,42.30
2018-05-06T19:54:43.983Z,42.50
2018-05-06T19:57:12.376Z,43.70
2018-05-06T19:59:40.091Z,43.60
2018-05-06T20:02:07.724Z,44.10
2018-05-06T20:04:35.404Z,44.50
2018-05-06T20:07:03.030Z,44.50
2018-05-06T20:09:30.689Z,44.70
2018-05-06T20:11:59.121Z,44.80
2018-05-06T20:14:26.764Z,44.70
2018-05-06T20:16:54.407Z,44.80
2018-05-06T20:19:22.043Z,44.60
2018-05-06T20:21:49.722Z,44.80
2018-05-06T20:24:17.288Z,44.90
2018-05-06T20:26:45.763Z,45.10
2018-05-06T20:29:13.386Z,45.00
2018-05-06T20:31:40.985Z,45.50
2018-05-06T20:34:08.636Z,46.30
2018-05-06T20:36:36.245Z,46.90
2018-05-06T20:39:04.704Z,47.80
2018-05-06T20:41:32.356Z,47.80
2018-05-06T20:44:00.012Z,47.80
2018-05-06T20:46:27.695Z,47.80
2018-05-06T20:48:55.338Z,48.10
2018-05-06T20:51:23.778Z,48.40
2018-05-06T20:53:51.405Z,48.40
2018-05-06T20:56:19.004Z,48.80
2018-05-06T20:58:46.650Z,48.50
2018-05-06T21:01:14.284Z,48.80
2018-05-06T21:03:41.917Z,49.30
2018-05-06T21:06:09.694Z,49.60
2018-05-06T21:08:37.341Z,49.80
2018-05-06T21:11:04.985Z,50.50
2018-05-06T21:13:34.612Z,50.70
2018-05-06T21:16:02.240Z,51.00
2018-05-06T21:18:29.974Z,51.80
2018-05-06T21:20:57.573Z,51.70
2018-05-06T21:23:25.983Z,52.20
2018-05-06T21:25:53.633Z,51.90
2018-05-06T21:28:21.269Z,52.50
2018-05-06T21:30:48.933Z,52.20
2018-05-06T21:33:16.529Z,53.30
2018-05-06T21:35:44.969Z,53.60
2018-05-06T21:38:12.626Z,53.60
2018-05-06T21:40:40.253Z,53.70
2018-05-06T21:43:07.885Z,53.60
2018-05-06T21:45:35.520Z,53.40
2018-05-06T21:48:04.124Z,54.00
2018-05-06T21:50:31.789Z,54.00
2018-05-06T21:52:59.528Z,53.60
2018-05-06T21:55:27.217Z,54.00
2018-05-06T21:57:55.076Z,54.30
2018-05-06T22:00:22.689Z,54.00
2018-05-06T22:02:50.323Z,54.20
2018-05-06T22:05:18.866Z,54.90
2018-05-06T22:07:47.000Z,55.50
2018-05-06T22:10:14.710Z,55.30
2018-05-06T22:12:42.400Z,56.40
2018-05-06T22:15:10.837Z,58.10
2018-05-06T22:17:38.473Z,58.00
2018-05-06T22:20:07.120Z,59.20
2018-05-06T22:22:34.958Z,58.90
2018-05-06T22:25:03.328Z,59.70
2018-05-06T22:27:31.727Z,59.80
2018-05-06T22:29:59.417Z,59.70
2018-05-06T22:32:27.653Z,59.50
2018-05-06T22:34:55.308Z,59.90
2018-05-06T22:37:23.143Z,59.80
2018-05-06T22:39:50.836Z,60.20
2018-05-06T22:42:18.526Z,60.20
2018-05-06T22:44:46.165Z,60.60
2018-05-06T22:47:14.567Z,60.70
2018-05-06T22:49:42.300Z,60.70
2018-05-06T22:52:10.029Z,60.00
2018-05-06T22:54:37.719Z,59.60
2018-05-06T22:57:06.134Z,59.40
2018-05-06T22:59:34.533Z,59.20
2018-05-06T23:02:02.273Z,59.70
2018-05-06T23:04:31.684Z,59.60
2018-05-06T23:07:00.068Z,59.80
2018-05-06T23:09:28.571Z,59.70
2018-05-06T23:11:56.197Z,59.70
2018-05-06T23:14:23.861Z,60.00
2018-05-06T23:16:51.529Z,59.90
2018-05-06T23:19:20.036Z,60.30
2018-05-06T23:21:47.796Z,60.50
2018-05-06T23:24:15.508Z,60.80
2018-05-06T23:26:43.265Z,61.20
2018-05-06T23:29:11.024Z,62.00
2018-05-06T23:31:38.763Z,62.40
2018-05-06T23:34:07.203Z,63.20
2018-05-06T23:36:35.945Z,63.30
2018-05-06T23:39:04.423Z,63.60
2018-05-06T23:41:32.820Z,63.20
2018-05-06T23:44:00.495Z,63.10
2018-05-06T23:46:28.593Z,63.50
2018-05-06T23:48:56.262Z,63.70
2018-05-06T23:51:23.905Z,64.30
2018-05-06T23:53:52.432Z,64.60
2018-05-06T23:56:20.873Z,65.00
2018-05-06T23:58:48.605Z,65.00
